Time;durP1;ratioP1;P1;durP2;ratioP2;P2;SDS_P1;SDS_P2;PMS_P1;PMS_P2;Temp;Humidity;BMP_temperature;BMP_pressure;BME280_temperature;BME280_humidity;BME280_pressure;Samples;Min_cycle;Max_cycle;Signal;HPM_P1;HPM_P2
2021/06/02 00:04:25;;;;;;;7.78;5.97;;;;;;;14.64;91.86;98302.70;3765077;77;44017;-20
2021/06/02 00:09:32;;;;;;;7.22;5.50;;;;;;;14.51;93.91;98301.70;3772414;77;44581;-22
2021/06/02 00:14:39;;;;;;;7.20;5.10;;;;;;;14.33;99.09;98308.35;3772562;77;43708;-20
2021/06/02 00:19:45;;;;;;;8.03;5.78;;;;;;;14.36;96.90;98312.05;3766261;77;44061;-22
2021/06/02 00:24:51;;;;;;;7.90;5.55;;;;;;;14.25;98.15;98305.75;3762120;77;43970;-20
2021/06/02 00:29:58;;;;;;;7.60;5.25;;;;;;;14.22;98.61;98304.77;3782282;77;43277;-21
2021/06/02 00:35:06;;;;;;;7.47;5.87;;;;;;;14.22;99.02;98302.05;3769941;77;43062;-21
2021/06/02 00:40:16;;;;;;;9.90;5.87;;;;;;;14.17;100.00;98306.68;3827326;77;44039;-22
2021/06/02 00:45:23;;;;;;;7.17;5.90;;;;;;;14.10;100.00;98295.75;3842277;77;44111;-21
2021/06/02 00:50:30;;;;;;;9.00;6.40;;;;;;;14.06;100.00;98294.44;3843172;77;44035;-22
2021/06/02 00:55:36;;;;;;;7.47;6.10;;;;;;;14.06;100.00;98290.38;3834126;77;44832;-23
2021/06/02 01:00:42;;;;;;;9.85;6.70;;;;;;;13.81;100.00;98293.37;3827728;77;44146;-20
2021/06/02 01:05:49;;;;;;;8.05;5.78;;;;;;;13.89;100.00;98291.59;3830543;77;43691;-22
2021/06/02 01:10:55;;;;;;;7.70;5.87;;;;;;;13.90;100.00;98291.40;3836835;77;43197;-23
2021/06/02 01:16:01;;;;;;;8.20;6.70;;;;;;;13.76;100.00;98290.38;3831653;77;43728;-21
2021/06/02 01:21:11;;;;;;;10.23;6.70;;;;;;;13.76;100.00;98294.43;3833193;77;44055;-21
2021/06/02 01:26:17;;;;;;;9.23;6.92;;;;;;;13.49;100.00;98289.95;3845168;77;44035;-22
2021/06/02 01:31:31;;;;;;;9.45;6.80;;;;;;;13.34;100.00;98291.77;3842620;77;43738;-21
2021/06/02 01:36:50;;;;;;;9.93;7.40;;;;;;;13.36;100.00;98285.63;3833767;77;43292;-21
2021/06/02 01:42:14;;;;;;;9.43;7.10;;;;;;;13.37;100.00;98285.47;3841114;77;44165;-21
2021/06/02 01:47:41;;;;;;;11.05;7.12;;;;;;;13.51;100.00;98291.96;3836655;77;44389;-22
2021/06/02 01:53:19;;;;;;;8.98;5.67;;;;;;;13.69;100.00;98298.92;3838320;77;42790;-21
2021/06/02 01:58:56;;;;;;;8.30;7.08;;;;;;;13.77;100.00;98287.99;3835698;77;45165;-23
2021/06/02 02:04:18;;;;;;;7.87;6.60;;;;;;;13.75;100.00;98287.33;3828175;77;44192;-25
2021/06/02 02:09:28;;;;;;;7.58;6.33;;;;;;;13.82;100.00;98286.91;3839367;77;44086;-22
2021/06/02 02:15:14;;;;;;;8.78;6.40;;;;;;;13.74;100.00;98295.66;3837916;77;44158;-24
2021/06/02 02:20:24;;;;;;;6.97;5.65;;;;;;;13.62;100.00;98300.66;3833585;77;44087;-22
2021/06/02 02:25:39;;;;;;;7.55;6.42;;;;;;;13.68;100.00;98299.94;3840004;77;43243;-23
2021/06/02 02:30:49;;;;;;;7.70;6.58;;;;;;;13.68;100.00;98302.12;3838358;77;43717;-23
2021/06/02 02:36:08;;;;;;;10.93;7.10;;;;;;;13.71;100.00;98300.90;3841293;77;43185;-22
2021/06/02 02:41:25;;;;;;;7.22;5.80;;;;;;;13.72;100.00;98306.64;3788772;77;43350;-21
2021/06/02 02:46:36;;;;;;;7.60;6.42;;;;;;;13.69;100.00;98320.58;3769897;78;43359;-21
2021/06/02 02:51:52;;;;;;;8.63;6.95;;;;;;;13.71;100.00;98323.42;3761271;78;44607;-21
2021/06/02 02:56:58;;;;;;;7.20;5.95;;;;;;;13.72;100.00;98314.77;3754879;78;43701;-22
2021/06/02 03:02:07;;;;;;;9.60;7.42;;;;;;;13.71;100.00;98318.50;3768490;77;44513;-23
2021/06/02 03:07:15;;;;;;;9.50;7.40;;;;;;;13.63;100.00;98325.35;3777255;77;44105;-22
2021/06/02 03:12:29;;;;;;;9.30;6.95;;;;;;;13.64;100.00;98329.75;3763890;77;44079;-21
2021/06/02 03:17:39;;;;;;;8.65;6.80;;;;;;;13.61;100.00;98330.10;3761786;77;43717;-23
2021/06/02 03:23:08;;;;;;;6.45;5.65;;;;;;;13.63;100.00;98330.77;3761328;77;44550;-22
2021/06/02 03:28:21;;;;;;;7.72;6.55;;;;;;;13.61;100.00;98330.10;3764336;77;43466;-22
2021/06/02 03:33:49;;;;;;;8.40;6.33;;;;;;;13.59;100.00;98329.44;3764208;77;44850;-23
2021/06/02 03:39:11;;;;;;;9.53;7.28;;;;;;;13.60;100.00;98329.77;3781396;77;43688;-23
2021/06/02 03:44:25;;;;;;;8.50;7.00;;;;;;;13.59;100.00;98331.65;3836866;77;43714;-23
2021/06/02 03:49:35;;;;;;;10.35;7.70;;;;;;;13.61;100.00;98332.81;3830875;76;42930;-23
2021/06/02 03:54:45;;;;;;;9.88;7.55;;;;;;;13.63;100.00;98334.83;3836394;76;43678;-22
2021/06/02 04:00:21;;;;;;;9.38;7.12;;;;;;;13.67;100.00;98344.27;3838074;77;43704;-21
2021/06/02 04:05:44;;;;;;;9.83;8.40;;;;;;;13.74;100.00;98345.73;3841245;77;44113;-22
2021/06/02 04:11:12;;;;;;;9.38;6.92;;;;;;;13.82;100.00;98351.89;3836546;77;44022;-20
2021/06/02 04:16:22;;;;;;;10.60;7.72;;;;;;;13.89;100.00;98352.53;3841144;77;43558;-21
2021/06/02 04:21:29;;;;;;;8.45;7.22;;;;;;;13.94;100.00;98356.37;3829928;77;43724;-21
2021/06/02 04:26:37;;;;;;;11.63;7.58;;;;;;;13.90;100.00;98355.56;3840748;77;44586;-21
2021/06/02 04:31:51;;;;;;;11.85;7.12;;;;;;;13.96;100.00;98357.52;3838094;77;44505;-21
2021/06/02 04:36:59;;;;;;;8.88;6.55;;;;;;;14.03;100.00;98353.89;3846945;77;43745;-21
2021/06/02 04:42:08;;;;;;;8.85;6.50;;;;;;;14.13;100.00;98354.98;3780349;77;43713;-22
2021/06/02 04:47:14;;;;;;;8.23;6.90;;;;;;;14.25;100.00;98364.00;3757065;77;43452;-22
2021/06/02 04:52:49;;;;;;;8.50;7.03;;;;;;;14.31;100.00;98361.89;3771788;77;43455;-21
2021/06/02 04:58:14;;;;;;;9.25;7.45;;;;;;;14.40;100.00;98366.21;3774662;77;43409;-21
2021/06/02 05:03:47;;;;;;;10.55;8.18;;;;;;;14.50;100.00;98357.77;3756444;78;44074;-21
2021/06/02 05:09:07;;;;;;;8.45;6.10;;;;;;;14.58;100.00;98360.91;3768393;78;43196;-22
2021/06/02 05:15:07;;;;;;;9.13;6.67;;;;;;;14.67;100.00;98365.22;3766270;78;44083;-22
2021/06/02 05:22:04;;;;;;;8.25;6.80;;;;;;;14.91;100.00;98369.99;3773662;77;43329;-21
2021/06/02 05:26:20;;;;;;;8.25;6.10;;;;;;;15.13;100.00;98369.52;3768921;77;44045;-22
2021/06/02 05:31:53;;;;;;;8.28;5.22;;;;;;;15.32;100.00;98375.34;3773991;78;44224;-22
2021/06/02 05:37:26;;;;;;;6.80;5.37;;;;;;;15.45;94.89;98387.70;3764705;77;44094;-21
2021/06/02 05:42:43;;;;;;;6.53;4.37;;;;;;;15.60;91.53;98394.41;3831348;77;44163;-22
2021/06/02 05:48:38;;;;;;;5.53;4.40;;;;;;;15.72;86.07;98387.42;3842989;77;43456;-22
2021/06/02 05:54:21;;;;;;;5.67;4.80;;;;;;;15.85;82.63;98386.74;3840013;77;43278;-22
2021/06/02 06:00:10;;;;;;;6.60;5.12;;;;;;;15.96;82.41;98395.39;3845849;77;45230;-22
2021/06/02 06:05:43;;;;;;;6.67;5.20;;;;;;;15.98;83.11;98397.40;3609665;80;44619;-22
2021/06/02 06:11:11;;;;;;;6.58;5.25;;;;;;;16.08;84.85;98394.31;3705306;79;44181;-21
2021/06/02 06:16:42;;;;;;;5.42;4.80;;;;;;;16.18;84.93;98394.80;3688373;80;44145;-21
2021/06/02 06:22:07;;;;;;;6.62;4.72;;;;;;;16.33;83.87;98396.91;3747675;78;42958;-22
2021/06/02 06:27:16;;;;;;;9.10;5.20;;;;;;;16.52;84.41;98393.67;3739519;78;43400;-21
2021/06/02 06:32:24;;;;;;;6.17;4.58;;;;;;;16.67;84.23;98397.11;3755169;78;44056;-23
2021/06/02 06:37:33;;;;;;;6.58;4.15;;;;;;;16.84;86.98;98393.52;3716862;78;43245;-20
2021/06/02 06:42:43;;;;;;;4.37;3.90;;;;;;;16.96;81.70;98398.42;3696198;78;44498;-21
2021/06/02 06:47:50;;;;;;;4.40;3.92;;;;;;;17.19;78.71;98404.36;3816454;77;44092;-20
2021/06/02 06:52:59;;;;;;;6.25;4.00;;;;;;;17.45;77.05;98394.59;3818721;77;44061;-21
2021/06/02 06:58:07;;;;;;;5.20;3.75;;;;;;;17.64;77.67;98396.17;3817429;77;44062;-21
2021/06/02 07:03:15;;;;;;;4.78;3.98;;;;;;;17.81;74.02;98393.88;3813409;77;43688;-21
2021/06/02 07:08:21;;;;;;;4.62;3.58;;;;;;;17.99;73.30;98391.92;3810191;77;44015;-21
2021/06/02 07:13:29;;;;;;;5.03;3.50;;;;;;;18.16;72.21;98400.01;3817258;76;43348;-21
2021/06/02 07:18:38;;;;;;;4.05;3.10;;;;;;;18.39;71.02;98404.68;3818631;77;43653;-21
2021/06/02 07:23:44;;;;;;;4.60;3.10;;;;;;;18.64;67.46;98404.82;3816295;77;44088;-21
2021/06/02 07:28:51;;;;;;;3.85;3.02;;;;;;;18.79;66.36;98402.69;3816828;77;43436;-21
2021/06/02 07:33:56;;;;;;;3.85;3.10;;;;;;;18.92;64.66;98409.15;3813489;77;43690;-21
2021/06/02 07:39:02;;;;;;;5.67;3.10;;;;;;;19.11;63.32;98407.97;3815631;77;44071;-21
2021/06/02 07:44:08;;;;;;;3.30;2.80;;;;;;;19.33;59.32;98412.05;3837706;77;43708;-21
2021/06/02 07:49:14;;;;;;;3.52;3.00;;;;;;;19.43;60.18;98418.93;3844474;77;44062;-22
2021/06/02 07:54:21;;;;;;;4.92;3.52;;;;;;;19.60;58.00;98411.88;3842894;77;44045;-21
2021/06/02 07:59:27;;;;;;;5.25;3.25;;;;;;;19.75;59.26;98418.42;3848510;77;43482;-21
2021/06/02 08:04:33;;;;;;;11.55;3.98;;;;;;;19.92;59.65;98425.58;3843745;77;44017;-21
2021/06/02 08:09:40;;;;;;;3.52;3.02;;;;;;;20.10;58.72;98420.70;3845308;77;43768;-21
2021/06/02 08:14:45;;;;;;;3.37;2.95;;;;;;;20.04;58.07;98415.28;3841648;77;44003;-21
2021/06/02 08:19:51;;;;;;;5.25;3.10;;;;;;;20.36;57.38;98413.29;3812685;77;409625;-22
2021/06/02 08:24:57;;;;;;;3.95;2.77;;;;;;;20.60;56.96;98418.95;3808925;77;43783;-22
2021/06/02 08:30:04;;;;;;;4.47;2.90;;;;;;;20.88;52.38;98418.45;3836207;77;44034;-21
2021/06/02 08:35:15;;;;;;;3.95;2.75;;;;;;;21.03;48.21;98417.23;3808664;77;44024;-21
2021/06/02 08:40:20;;;;;;;8.50;3.10;;;;;;;21.11;50.13;98421.02;3797326;77;43673;-22
2021/06/02 08:45:26;;;;;;;2.42;2.20;;;;;;;21.25;47.75;98422.53;3759920;78;44089;-22
2021/06/02 08:50:32;;;;;;;4.40;2.65;;;;;;;21.47;48.27;98417.91;3762051;78;43308;-21
2021/06/02 08:55:40;;;;;;;2.75;2.30;;;;;;;21.59;47.50;98421.23;3769234;78;43352;-21
2021/06/02 09:00:46;;;;;;;3.17;2.47;;;;;;;21.65;45.92;98423.09;3790750;77;43317;-22
2021/06/02 09:05:55;;;;;;;3.10;2.67;;;;;;;21.58;45.78;98421.78;3771972;78;44011;-22
2021/06/02 09:11:10;;;;;;;5.85;2.80;;;;;;;21.76;47.28;98416.80;3767464;78;43374;-22
2021/06/02 09:16:23;;;;;;;3.55;2.65;;;;;;;21.95;48.20;98424.94;3770778;78;44032;-22
2021/06/02 09:21:30;;;;;;;3.22;2.67;;;;;;;21.85;46.39;98416.76;3763106;78;44073;-22
2021/06/02 09:26:36;;;;;;;3.52;2.70;;;;;;;21.93;47.29;98416.14;3766467;78;43070;-22
2021/06/02 09:31:44;;;;;;;3.62;2.60;;;;;;;21.98;46.66;98408.87;3761471;78;43482;-22
2021/06/02 09:36:53;;;;;;;3.95;2.62;;;;;;;22.21;47.56;98409.11;3770919;78;44058;-22
2021/06/02 09:42:00;;;;;;;8.08;2.45;;;;;;;22.24;47.93;98415.51;3761211;78;43389;-22
2021/06/02 09:47:08;;;;;;;3.33;2.60;;;;;;;22.56;47.62;98413.28;3764610;78;43513;-22
2021/06/02 09:52:14;;;;;;;2.60;2.40;;;;;;;22.64;45.76;98414.80;3760303;78;43397;-22
2021/06/02 09:57:20;;;;;;;3.80;2.40;;;;;;;22.85;46.53;98418.84;3764276;78;44066;-22
2021/06/02 10:02:27;;;;;;;3.20;2.60;;;;;;;23.04;44.73;98416.77;3770514;77;43341;-22
2021/06/02 10:07:34;;;;;;;3.50;2.20;;;;;;;23.27;43.71;98415.05;3768104;78;44427;-22
2021/06/02 10:12:40;;;;;;;4.10;2.80;;;;;;;23.47;43.34;98415.14;3763015;78;43234;-22
2021/06/02 10:17:46;;;;;;;4.60;2.37;;;;;;;23.68;43.07;98422.72;3765989;78;44793;-22
2021/06/02 10:22:55;;;;;;;4.00;2.33;;;;;;;23.99;43.01;98422.46;3801934;78;43713;-23
2021/06/02 10:28:01;;;;;;;5.95;2.37;;;;;;;24.24;42.52;98426.17;3757984;78;43475;-22
2021/06/02 10:33:09;;;;;;;2.52;2.33;;;;;;;24.42;41.91;98420.09;3763430;78;43801;-23
2021/06/02 10:38:17;;;;;;;4.72;2.70;;;;;;;24.53;42.85;98434.30;3777228;78;44057;-22
2021/06/02 10:43:26;;;;;;;3.40;2.50;;;;;;;24.78;42.49;98428.91;3761796;78;44042;-22
2021/06/02 10:48:41;;;;;;;5.97;2.35;;;;;;;24.72;41.72;98425.80;3765160;78;43493;-22
2021/06/02 10:53:47;;;;;;;3.30;2.45;;;;;;;24.75;40.90;98429.44;3767350;78;43344;-22
2021/06/02 10:58:55;;;;;;;5.92;2.52;;;;;;;24.62;39.52;98430.58;3766502;78;44017;-22
2021/06/02 11:04:13;;;;;;;3.47;2.50;;;;;;;24.53;38.49;98438.99;3769274;77;44413;-22
2021/06/02 11:09:23;;;;;;;2.72;2.45;;;;;;;24.90;40.77;98434.32;3763019;78;44114;-22
2021/06/02 11:14:29;;;;;;;6.67;2.85;;;;;;;24.97;41.06;98438.27;3762426;78;42863;-22
2021/06/02 11:19:41;;;;;;;5.20;2.45;;;;;;;25.08;41.41;98437.31;3766158;78;44075;-22
2021/06/02 11:24:49;;;;;;;5.72;2.65;;;;;;;25.04;41.76;98441.66;3774138;78;44097;-22
2021/06/02 11:30:19;;;;;;;3.45;2.40;;;;;;;24.99;42.32;98437.47;3776405;78;43688;-22
2021/06/02 11:36:04;;;;;;;4.47;2.60;;;;;;;24.99;41.74;98438.85;3765757;78;44470;-23
2021/06/02 11:41:13;;;;;;;4.80;2.47;;;;;;;24.99;41.33;98434.72;3755027;78;43391;-22
2021/06/02 11:46:21;;;;;;;3.83;2.50;;;;;;;25.10;42.19;98435.66;3757126;78;44041;-23
2021/06/02 11:51:27;;;;;;;3.05;2.35;;;;;;;25.06;41.22;98433.97;3770077;78;44405;-22
2021/06/02 11:56:33;;;;;;;2.75;2.40;;;;;;;25.14;39.21;98432.13;3761204;78;43621;-22
2021/06/02 12:01:39;;;;;;;4.60;2.50;;;;;;;25.30;39.48;98431.77;3765721;78;44380;-22
2021/06/02 12:06:47;;;;;;;3.72;2.60;;;;;;;25.41;39.85;98435.52;3757805;78;43358;-22
2021/06/02 12:11:54;;;;;;;3.98;2.58;;;;;;;25.32;40.50;98439.25;3768171;77;44055;-22
2021/06/02 12:17:05;;;;;;;3.22;2.70;;;;;;;25.47;41.13;98437.23;3782905;77;43674;-22
2021/06/02 12:22:13;;;;;;;4.28;2.65;;;;;;;25.91;41.09;98443.77;3769276;78;43344;-22
2021/06/02 12:27:19;;;;;;;5.90;3.20;;;;;;;25.60;40.18;98440.67;3753087;78;44569;-23
2021/06/02 12:32:25;;;;;;;3.70;2.90;;;;;;;25.95;42.17;98433.84;3762056;78;44068;-23
2021/06/02 12:37:31;;;;;;;4.25;2.50;;;;;;;26.15;40.47;98437.38;3761678;78;43963;-23
2021/06/02 12:42:42;;;;;;;2.95;2.42;;;;;;;26.34;40.50;98441.13;3765106;78;44527;-21
2021/06/02 12:47:49;;;;;;;2.90;2.35;;;;;;;26.56;37.85;98436.84;3777049;78;43527;-21
2021/06/02 12:52:56;;;;;;;2.72;2.40;;;;;;;26.72;37.99;98440.53;3778911;78;42896;-22
2021/06/02 12:58:06;;;;;;;3.45;2.98;;;;;;;26.93;38.23;98429.66;3768125;78;43627;-22
2021/06/02 13:03:14;;;;;;;3.20;2.90;;;;;;;27.26;39.15;98442.22;3768625;78;44015;-22
2021/06/02 13:08:20;;;;;;;4.75;2.87;;;;;;;27.13;38.95;98428.89;3762083;78;42924;-22
2021/06/02 13:13:29;;;;;;;3.20;2.90;;;;;;;27.13;38.95;98428.89;3765998;78;44383;-22
2021/06/02 13:18:36;;;;;;;3.05;2.75;;;;;;;27.16;40.19;98437.50;3762477;78;43455;-22
2021/06/02 13:23:43;;;;;;;4.53;3.00;;;;;;;27.80;38.56;98443.79;3768428;77;43878;-22
2021/06/02 13:28:55;;;;;;;3.67;3.10;;;;;;;27.80;38.56;98443.79;3761994;78;43681;-22
2021/06/02 13:34:01;;;;;;;5.20;2.85;;;;;;;28.07;39.15;98426.64;3751998;77;43706;-22
2021/06/02 13:39:16;;;;;;;3.95;2.92;;;;;;;28.07;39.15;98426.64;3761714;78;44644;-22
2021/06/02 13:44:26;;;;;;;3.33;2.95;;;;;;;28.01;38.42;98427.77;3748246;78;43359;-22
2021/06/02 13:49:35;;;;;;;4.55;2.90;;;;;;;28.21;38.60;98430.56;3714369;79;43695;-22
2021/06/02 13:54:44;;;;;;;3.98;2.90;;;;;;;28.21;38.60;98430.56;3711917;79;43284;-22
2021/06/02 13:59:52;;;;;;;5.70;3.17;;;;;;;28.22;38.43;98433.61;3703042;79;43689;-23
2021/06/02 14:05:02;;;;;;;4.05;2.65;;;;;;;28.77;36.79;98416.37;3705724;79;43401;-23
2021/06/02 14:10:09;;;;;;;3.58;2.80;;;;;;;29.01;36.14;98424.05;3715356;79;43980;-24
2021/06/02 14:15:19;;;;;;;4.03;2.87;;;;;;;28.98;36.58;98428.80;3681167;79;44778;-23
2021/06/02 14:20:26;;;;;;;4.97;2.40;;;;;;;29.40;36.70;98431.70;3704536;79;43723;-23
2021/06/02 14:25:34;;;;;;;3.37;2.80;;;;;;;29.46;33.65;98422.78;3704041;79;43320;-23
2021/06/02 14:30:40;;;;;;;2.90;2.50;;;;;;;29.97;32.95;98425.27;3706602;78;44570;-24
2021/06/02 14:35:48;;;;;;;2.75;2.40;;;;;;;30.43;33.29;98420.44;3703527;79;43670;-23
2021/06/02 14:40:57;;;;;;;3.90;2.37;;;;;;;29.57;33.50;98404.95;3699788;79;44027;-23
2021/06/02 14:46:04;;;;;;;2.52;2.30;;;;;;;30.03;33.19;98419.12;3711143;76;44055;-23
2021/06/02 14:51:10;;;;;;;4.33;2.47;;;;;;;30.71;32.60;98420.17;3781466;78;43698;-22
2021/06/02 14:56:17;;;;;;;3.05;2.40;;;;;;;30.94;32.30;98414.91;3785213;78;43146;-21
2021/06/02 15:01:30;;;;;;;3.40;2.42;;;;;;;31.64;31.80;98420.42;3784210;78;43999;-24
2021/06/02 15:06:35;;;;;;;2.22;2.02;;;;;;;31.64;31.80;98420.42;3781247;78;44033;-22
2021/06/02 15:11:43;;;;;;;2.50;2.10;;;;;;;30.66;32.05;98410.48;3779132;78;44007;-23
2021/06/02 15:16:51;;;;;;;5.12;2.40;;;;;;;30.66;32.05;98410.48;3793138;77;43608;-22
2021/06/02 15:22:01;;;;;;;3.67;2.30;;;;;;;30.93;31.43;98416.03;3782646;78;44000;-22
2021/06/02 15:27:11;;;;;;;5.03;2.15;;;;;;;30.99;30.05;98411.23;3781948;78;43598;-22
2021/06/02 15:32:21;;;;;;;3.10;2.08;;;;;;;30.80;30.50;98398.12;3796745;78;43705;-22
2021/06/02 15:37:30;;;;;;;4.42;2.33;;;;;;;30.80;30.50;98398.12;3784614;77;44413;-22
2021/06/02 15:42:37;;;;;;;2.60;2.25;;;;;;;31.52;30.52;98407.52;3775316;78;43286;-22
2021/06/02 15:47:44;;;;;;;3.87;1.90;;;;;;;30.97;31.74;98404.59;3770896;78;44066;-24
2021/06/02 15:52:52;;;;;;;4.33;2.10;;;;;;;31.09;29.92;98399.17;3792489;78;43347;-24
2021/06/02 15:58:02;;;;;;;3.47;2.10;;;;;;;30.55;30.44;98395.88;3795313;78;43838;-20
2021/06/02 16:03:12;;;;;;;4.22;2.15;;;;;;;30.25;30.51;98399.76;3780876;77;43936;-24
2021/06/02 16:08:19;;;;;;;2.50;2.15;;;;;;;29.91;30.83;98400.56;3790504;78;43845;-23
2021/06/02 16:13:25;;;;;;;3.33;2.10;;;;;;;30.74;30.70;98393.72;3790145;78;43727;-24
2021/06/02 16:18:31;;;;;;;2.77;2.22;;;;;;;31.26;30.08;98399.52;3769314;78;43326;-23
2021/06/02 16:23:38;;;;;;;2.25;2.05;;;;;;;30.54;30.20;98396.16;3771615;78;44115;-23
2021/06/02 16:28:47;;;;;;;2.80;2.00;;;;;;;30.63;30.84;98398.58;3769270;78;44083;-23
2021/06/02 16:33:54;;;;;;;3.25;2.15;;;;;;;29.54;31.39;98397.77;3761258;77;43393;-23
2021/06/02 16:39:01;;;;;;;4.22;2.00;;;;;;;29.13;32.22;98397.40;3760354;78;43484;-23
2021/06/02 16:44:08;;;;;;;2.22;2.00;;;;;;;29.29;33.25;98401.73;3764360;78;44165;-23
2021/06/02 16:49:14;;;;;;;4.08;2.22;;;;;;;29.51;32.82;98395.83;3771077;77;43105;-23
2021/06/02 16:54:21;;;;;;;2.35;1.95;;;;;;;29.10;32.21;98397.95;3772737;78;43705;-23
2021/06/02 16:59:29;;;;;;;4.65;2.00;;;;;;;28.50;32.94;98402.28;3765647;78;43950;-23
2021/06/02 17:04:36;;;;;;;4.17;2.20;;;;;;;28.07;33.34;98410.88;3777787;78;43377;-23
2021/06/02 17:09:44;;;;;;;2.35;1.98;;;;;;;28.23;33.45;98408.95;3775377;78;44038;-23
2021/06/02 17:14:51;;;;;;;4.62;2.30;;;;;;;28.23;33.45;98408.95;3780618;78;44356;-23
2021/06/02 17:19:59;;;;;;;2.35;2.00;;;;;;;27.68;33.61;98408.61;3780513;78;44052;-23
2021/06/02 17:25:07;;;;;;;4.20;2.02;;;;;;;27.73;33.48;98409.17;3766400;78;43369;-23
2021/06/02 17:30:15;;;;;;;4.25;2.30;;;;;;;27.88;33.71;98418.89;3770883;78;44059;-23
2021/06/02 17:35:24;;;;;;;2.67;1.90;;;;;;;27.53;34.14;98407.47;3779351;78;43379;-23
2021/06/02 17:40:29;;;;;;;3.08;2.20;;;;;;;26.83;35.35;98417.41;3758809;77;44075;-23
2021/06/02 17:45:35;;;;;;;2.77;2.20;;;;;;;26.27;36.79;98430.30;3780193;78;43378;-23
2021/06/02 17:50:43;;;;;;;3.55;2.35;;;;;;;25.81;37.65;98435.65;3785507;78;43368;-23
2021/06/02 17:55:51;;;;;;;4.95;2.10;;;;;;;25.70;38.12;98426.98;3774611;78;43947;-23
2021/06/02 18:00:59;;;;;;;3.75;2.70;;;;;;;25.70;38.12;98426.98;3736105;78;44094;-23
2021/06/02 18:06:07;;;;;;;4.42;2.52;;;;;;;25.15;38.63;98438.50;3778038;78;43690;-23
2021/06/02 18:11:13;;;;;;;3.87;2.60;;;;;;;24.65;40.41;98445.77;3770147;78;44082;-24
2021/06/02 18:16:20;;;;;;;4.87;2.98;;;;;;;24.65;40.41;98445.77;3766091;78;43302;-23
2021/06/02 18:21:29;;;;;;;2.85;2.58;;;;;;;24.15;41.28;98450.52;3764182;78;44060;-23
2021/06/02 18:26:36;;;;;;;3.08;2.77;;;;;;;23.73;42.02;98460.48;3767300;78;43708;-23
2021/06/02 18:31:45;;;;;;;4.35;2.80;;;;;;;23.59;42.00;98464.05;3774541;78;44084;-23
2021/06/02 18:36:50;;;;;;;4.03;2.75;;;;;;;23.45;42.86;98462.70;3781743;78;44024;-23
2021/06/02 18:41:56;;;;;;;4.08;3.02;;;;;;;23.22;43.56;98471.31;3772074;78;43314;-24
2021/06/02 18:47:02;;;;;;;4.80;2.70;;;;;;;22.91;44.45;98469.23;3772978;77;44076;-22
2021/06/02 18:52:09;;;;;;;3.47;2.90;;;;;;;22.56;44.94;98476.95;3743084;76;44017;-22
2021/06/02 18:57:15;;;;;;;4.10;2.75;;;;;;;22.09;46.23;98474.97;3743572;79;43741;-23
2021/06/02 19:02:21;;;;;;;3.65;3.15;;;;;;;21.82;47.29;98473.98;3743243;79;44144;-23
2021/06/02 19:07:28;;;;;;;4.60;3.00;;;;;;;21.59;47.47;98478.80;3743929;78;44108;-22
2021/06/02 19:12:34;;;;;;;6.00;3.65;;;;;;;21.33;49.00;98493.18;3742277;79;43733;-23
2021/06/02 19:17:40;;;;;;;6.67;3.67;;;;;;;21.11;49.79;98500.47;3744075;78;43657;-23
2021/06/02 19:22:47;;;;;;;5.30;3.30;;;;;;;20.87;52.00;98496.22;3740913;78;43471;-22
2021/06/02 19:27:53;;;;;;;3.85;3.40;;;;;;;20.66;53.65;98505.66;3741079;79;43765;-22
2021/06/02 19:33:02;;;;;;;5.15;3.83;;;;;;;20.44;54.61;98514.27;3744514;78;43713;-22
2021/06/02 19:38:08;;;;;;;5.97;3.60;;;;;;;20.44;55.25;98514.78;3742923;79;43719;-23
2021/06/02 19:43:14;;;;;;;4.92;3.50;;;;;;;20.26;56.11;98524.63;3745440;78;43695;-22
2021/06/02 19:48:21;;;;;;;5.12;3.95;;;;;;;20.11;57.48;98525.45;3747903;77;43690;-22
2021/06/02 19:53:27;;;;;;;7.78;3.90;;;;;;;19.99;57.41;98535.73;3785056;78;44038;-22
2021/06/02 19:58:33;;;;;;;5.00;4.10;;;;;;;19.81;59.65;98543.27;3748094;78;44027;-22
2021/06/02 20:03:39;;;;;;;9.28;4.53;;;;;;;19.73;58.36;98548.14;3758302;78;43338;-22
2021/06/02 20:08:45;;;;;;;4.10;3.70;;;;;;;19.68;58.34;98559.22;3765257;78;44020;-22
2021/06/02 20:13:51;;;;;;;5.72;3.87;;;;;;;19.50;60.05;98559.07;3769146;78;44098;-23
2021/06/02 20:18:58;;;;;;;5.17;4.00;;;;;;;19.43;60.25;98570.02;3758891;78;43770;-21
2021/06/02 20:24:05;;;;;;;4.83;3.95;;;;;;;19.37;60.60;98570.36;3763349;78;43313;-22
2021/06/02 20:29:14;;;;;;;4.03;3.62;;;;;;;19.47;59.88;98577.25;3765578;78;44145;-21
2021/06/02 20:34:20;;;;;;;5.22;4.17;;;;;;;19.26;62.12;98584.67;3757846;78;43714;-21
2021/06/02 20:39:27;;;;;;;4.37;3.90;;;;;;;19.16;62.69;98593.84;3689011;79;44054;-22
2021/06/02 20:44:35;;;;;;;7.10;4.20;;;;;;;19.07;62.84;98596.80;3757997;77;44061;-21
2021/06/02 20:49:42;;;;;;;5.50;4.00;;;;;;;18.97;64.15;98608.69;3771168;78;44007;-23
2021/06/02 20:54:48;;;;;;;5.25;4.20;;;;;;;18.93;64.45;98612.84;3766629;78;44111;-21
2021/06/02 20:59:54;;;;;;;5.92;4.25;;;;;;;18.83;64.76;98612.44;3766718;78;43396;-22
2021/06/02 21:05:00;;;;;;;6.15;4.53;;;;;;;18.68;66.21;98620.30;3759882;78;42793;-21
2021/06/02 21:10:09;;;;;;;5.72;4.10;;;;;;;18.57;66.62;98631.84;3766543;78;44155;-22
2021/06/02 21:15:14;;;;;;;5.10;4.58;;;;;;;18.46;67.33;98630.04;3772300;78;44097;-22
2021/06/02 21:20:22;;;;;;;5.22;3.95;;;;;;;18.33;68.43;98632.23;3775095;78;43730;-22
2021/06/02 21:25:28;;;;;;;4.90;4.40;;;;;;;18.24;70.92;98628.53;3756449;78;43077;-21
2021/06/02 21:30:35;;;;;;;5.90;4.30;;;;;;;18.17;70.26;98643.51;3776544;78;43445;-21
2021/06/02 21:35:41;;;;;;;4.92;4.28;;;;;;;18.14;70.41;98640.67;3760319;78;43304;-21
2021/06/02 21:40:47;;;;;;;5.20;4.70;;;;;;;18.10;71.41;98636.66;3788412;77;44497;-21
2021/06/02 21:45:53;;;;;;;5.90;4.35;;;;;;;17.97;72.85;98642.92;3762040;78;44579;-22
2021/06/02 21:50:59;;;;;;;6.70;4.70;;;;;;;17.85;73.78;98649.44;3751451;78;44573;-20
2021/06/02 21:56:06;;;;;;;6.67;4.90;;;;;;;17.77;74.54;98648.25;3744942;78;43266;-21
2021/06/02 22:01:12;;;;;;;6.72;4.67;;;;;;;17.75;74.47;98640.80;3745033;78;43541;-22
2021/06/02 22:06:18;;;;;;;6.60;4.67;;;;;;;17.68;74.16;98652.20;3750723;78;43475;-22
2021/06/02 22:11:24;;;;;;;5.03;4.40;;;;;;;17.73;73.65;98660.59;3746853;78;44070;-22
2021/06/02 22:16:31;;;;;;;6.22;4.75;;;;;;;17.70;73.77;98660.98;3747460;78;42972;-22
2021/06/02 22:21:38;;;;;;;5.15;4.50;;;;;;;17.68;73.59;98665.28;3748682;78;44072;-21
2021/06/02 22:26:44;;;;;;;5.42;4.90;;;;;;;17.69;73.92;98674.32;3751481;78;42913;-22
2021/06/02 22:31:49;;;;;;;6.92;4.95;;;;;;;17.65;73.68;98667.05;3747405;78;43482;-22
2021/06/02 22:36:55;;;;;;;6.33;4.67;;;;;;;17.66;73.56;98673.35;3742947;78;43634;-22
2021/06/02 22:42:01;;;;;;;5.15;4.58;;;;;;;17.60;74.80;98675.00;3741203;78;43718;-22
2021/06/02 22:47:07;;;;;;;5.12;4.58;;;;;;;17.54;75.78;98679.36;3741361;78;44617;-22
2021/06/02 22:52:13;;;;;;;5.50;4.67;;;;;;;17.54;75.05;98678.00;3790909;77;43736;-22
2021/06/02 22:57:19;;;;;;;4.92;4.42;;;;;;;17.52;75.50;98682.80;3808847;77;43401;-22
2021/06/02 23:02:25;;;;;;;4.72;4.30;;;;;;;17.52;74.86;98690.14;3815963;77;43438;-21
2021/06/02 23:07:31;;;;;;;5.17;4.67;;;;;;;17.48;74.76;98692.41;3806517;77;44044;-21
2021/06/02 23:12:37;;;;;;;6.97;4.58;;;;;;;17.43;75.90;98692.69;3819568;77;44487;-21
2021/06/02 23:17:46;;;;;;;4.78;4.28;;;;;;;17.40;75.11;98693.93;3813934;77;44036;-22
2021/06/02 23:22:53;;;;;;;6.90;4.67;;;;;;;17.40;73.95;98689.84;3815310;77;43744;-21
2021/06/02 23:27:59;;;;;;;6.20;4.85;;;;;;;17.42;73.82;98693.22;3824372;77;44208;-21
2021/06/02 23:33:06;;;;;;;5.35;4.78;;;;;;;17.42;73.19;98695.94;3817592;77;43475;-21
2021/06/02 23:38:12;;;;;;;8.80;5.08;;;;;;;17.38;73.22;98690.05;3823192;77;43689;-21
2021/06/02 23:43:18;;;;;;;5.90;5.20;;;;;;;17.32;73.90;98690.00;3811313;77;43714;-22
2021/06/02 23:48:24;;;;;;;6.65;4.65;;;;;;;17.28;73.76;98685.98;3803575;77;44070;-21
2021/06/02 23:53:30;;;;;;;7.15;5.20;;;;;;;17.22;74.08;98683.03;3799741;76;43440;-21
2021/06/02 23:58:35;;;;;;;8.08;4.90;;;;;;;17.09;75.60;98685.11;3811715;77;44063;-23
